CheckWX is a tool to help pilots better visualize weather data.  It is not intended as a substitute for an official pre-flight weather briefing.

06:18:23 UTC

KAVP METAR
Wilkes-Barre / Scranton International Airport
Wilkes-Barre/Scranton, Pennsylvania, USA
Current

24 mins ago

KAVP 230554Z 00000KT 9SM CLR 11/07 A3006 RMK AO2 SLP179 T01060067 10167 20100 56008 $
Observed
Apr-23 @ 05:54 UTC
Visibility
9 SM
Flight Rules
VFR
Cloud Levels
  • Clear skies
Temperature
11°C / 52°F
Dewpoint
C / 45°F
Humidity
77%
Altimeter
30.06" Hg
Pressure
1017.92 hPa
Previous

1 hour ago

KAVP 230454Z 31003KT 10SM CLR 12/07 A3007 RMK AO2 SLP180 T01220067 401830106 $
Observed
Apr-23 @ 04:54 UTC
Wind
  • 310° at 3 KTS
Visibility
10 SM
Flight Rules
VFR
Cloud Levels
  • Clear skies
Temperature
12°C / 54°F
Dewpoint
C / 45°F
Humidity
72%
Altimeter
30.07" Hg
Pressure
1018.32 hPa
Previous

2 hours ago

KAVP 230354Z 31005KT 10SM CLR 13/06 A3007 RMK AO2 SLP183 T01280061 $
Observed
Apr-23 @ 03:54 UTC
Wind
  • 310° at 5 KTS
Visibility
10 SM
Flight Rules
VFR
Cloud Levels
  • Clear skies
Temperature
13°C / 55°F
Dewpoint
C / 43°F
Humidity
63%
Altimeter
30.07" Hg
Pressure
1018.32 hPa